대문
인공위성 심상 15 일 일기 예보기후바람 예보 사이클론 번개 공항FAQ 회보 프로젝트 소개
날씨 : 유럽 아프리카 북아메리카 남아메리카 아시아 오스트레일리아-오세아니아 다른 사람
언어 접촉

청도, 중국

위도: 36-04N, 경도: 120-20E, 해발고도: 77 m


METAR: ZSQD 250300Z 01009MPS 4000 RA BKN007 OVC020 22/20 Q0996 NOSIG
short-TAF: 구식인 (63713 시간)
long-TAF: ZSQD 241536Z 2418/2518 05006MPS 3500 -RA BR SCT008 BKN030 TX28/2506Z TN18/2421Z BECMG 2420/2421 03012G17MPS 2500 RA BKN008 OVC020 BECMG 2507/2508 36004MPS 5000 BR NSC TEMPO 2422/2504 TSRA BKN008 OVC020 SCT030CB

시간: 11:43 (03:43 UTC)

날씨관측

보고는 전에 43 분 제출되었다: 03:00 UTC  
바람 17 kt  
온도 22°C
습도 88%
기압 996 hPa
시정 4000 m
구름많음 고도에의 700 ft
흐림 고도에의 2000 ft

단위계

날씨예보

보고는 전에 11 시간 그리고 40 분 제출되었다: 16:03 UTC  
예보기간[UTC] : 24일 18시 ~ 25일 18시
바람 12 kt   북동
시정 3500 m
구름조금 고도에의 800 ft
구름많음 고도에의 3000 ft
빛 비 그리고 박무
어울리는
  24일 20시 ~ 24일 21시
바람 23 kt   북북동 순간풍속 33 kt
시정 2500 m
구름많음 고도에의 800 ft
흐림 고도에의 2000 ft
어울리는
  25일 07시 ~ 25일 08시
바람 8 kt  
시정 5000 m
박무
임시의
  24일 22시 ~ 25일 04시
구름많음 고도에의 800 ft
흐림 고도에의 2000 ft
구름조금 고도에의 3000 ft , 적란운.
뇌우 비
이 위치에 정보는 a를 조건으로 하여 이다 포기
날씨 : 유럽 아프리카 북아메리카 남아메리카 아시아 오스트레일리아-오세아니아 다른 사람
인공위성 심상 15 일 일기 예보기후바람 예보 사이클론 번개 공항FAQ 언어 접촉 회보 프로젝트 소개